Pittsburgh, Pennsylvania
Traffic Map
Current Weather Conditions
Pittsburgh, Pennsylvania
Clear
Clear

Feels Like: -1°
Wind Chill: -1° Ceiling: Unl
Heat Index: Visibility: 10mi
Dew Point: -9° Wind: 8mph
Humidity: 42% Direction: 120° (ESE)
Pressure: 30.4in Gusts: 0mph
Raw Report DataKAGC 170853Z AUTO 12007KT 10SM CLR 03/M09 A3040 RMK AO2 SLP308 T00281089 55000 TSNO $
Traffic Incident Summary
Active as of:
Severity:
Category:
InformationThere was an issue retrieving the traffic information for this location. Please try a different location or try again shortly.
Advertisements
At Last! Intellicast now available for iPhone and Android